sensor_id;sensor_type;location;lat;lon;timestamp;temperature;humidity
24902;DHT22;31328;51.402;0.016;2023-03-05T00:00:52;6.80;94.40
24902;DHT22;31328;51.402;0.016;2023-03-05T00:03:18;6.80;94.40
24902;DHT22;31328;51.402;0.016;2023-03-05T00:05:44;6.80;94.40
24902;DHT22;31328;51.402;0.016;2023-03-05T00:08:11;6.80;94.70
24902;DHT22;31328;51.402;0.016;2023-03-05T00:10:37;6.80;94.40
24902;DHT22;31328;51.402;0.016;2023-03-05T00:13:03;6.80;94.50
24902;DHT22;31328;51.402;0.016;2023-03-05T00:15:29;6.80;94.40
24902;DHT22;31328;51.402;0.016;2023-03-05T00:17:56;6.80;94.50
24902;DHT22;31328;51.402;0.016;2023-03-05T00:20:22;6.80;94.40
24902;DHT22;31328;51.402;0.016;2023-03-05T00:22:48;6.80;94.50
24902;DHT22;31328;51.402;0.016;2023-03-05T00:25:15;6.70;94.50
24902;DHT22;31328;51.402;0.016;2023-03-05T00:27:41;6.70;94.40
24902;DHT22;31328;51.402;0.016;2023-03-05T00:30:08;6.70;94.50
24902;DHT22;31328;51.402;0.016;2023-03-05T00:32:35;6.70;94.50
24902;DHT22;31328;51.402;0.016;2023-03-05T00:35:02;6.70;94.50
24902;DHT22;31328;51.402;0.016;2023-03-05T00:37:28;6.70;94.60
24902;DHT22;31328;51.402;0.016;2023-03-05T00:39:54;6.70;94.60
24902;DHT22;31328;51.402;0.016;2023-03-05T00:42:21;6.70;94.50
24902;DHT22;31328;51.402;0.016;2023-03-05T00:44:47;6.70;94.60
24902;DHT22;31328;51.402;0.016;2023-03-05T00:47:13;6.70;94.50
24902;DHT22;31328;51.402;0.016;2023-03-05T00:49:43;6.70;94.60
24902;DHT22;31328;51.402;0.016;2023-03-05T00:52:09;6.70;94.70
24902;DHT22;31328;51.402;0.016;2023-03-05T00:54:36;6.70;94.70
24902;DHT22;31328;51.402;0.016;2023-03-05T00:57:02;6.70;94.70
24902;DHT22;31328;51.402;0.016;2023-03-05T00:59:30;6.70;94.60
24902;DHT22;31328;51.402;0.016;2023-03-05T01:01:57;6.70;94.60
24902;DHT22;31328;51.402;0.016;2023-03-05T01:04:23;6.70;94.60
24902;DHT22;31328;51.402;0.016;2023-03-05T01:06:49;6.60;94.50
24902;DHT22;31328;51.402;0.016;2023-03-05T01:09:15;6.60;94.60
24902;DHT22;31328;51.402;0.016;2023-03-05T01:11:42;6.60;94.50
24902;DHT22;31328;51.402;0.016;2023-03-05T01:14:08;6.60;94.60
24902;DHT22;31328;51.402;0.016;2023-03-05T01:16:35;6.60;94.60
24902;DHT22;31328;51.402;0.016;2023-03-05T01:19:01;6.60;94.70
24902;DHT22;31328;51.402;0.016;2023-03-05T01:21:27;6.60;94.80
24902;DHT22;31328;51.402;0.016;2023-03-05T01:23:54;6.60;94.70
24902;DHT22;31328;51.402;0.016;2023-03-05T01:26:20;6.60;94.80
24902;DHT22;31328;51.402;0.016;2023-03-05T01:28:46;6.60;94.70
24902;DHT22;31328;51.402;0.016;2023-03-05T01:31:13;6.60;94.80
24902;DHT22;31328;51.402;0.016;2023-03-05T01:33:39;6.60;94.70
24902;DHT22;31328;51.402;0.016;2023-03-05T01:36:07;6.50;94.60
24902;DHT22;31328;51.402;0.016;2023-03-05T01:38:35;6.50;94.60
24902;DHT22;31328;51.402;0.016;2023-03-05T01:41:01;6.50;94.70
24902;DHT22;31328;51.402;0.016;2023-03-05T01:43:28;6.50;94.70
24902;DHT22;31328;51.402;0.016;2023-03-05T01:48:52;6.50;94.80
24902;DHT22;31328;51.402;0.016;2023-03-05T01:51:22;6.50;94.80
24902;DHT22;31328;51.402;0.016;2023-03-05T01:53:51;6.50;94.80
24902;DHT22;31328;51.402;0.016;2023-03-05T01:56:17;6.50;95.10
24902;DHT22;31328;51.402;0.016;2023-03-05T01:58:44;6.50;94.70
24902;DHT22;31328;51.402;0.016;2023-03-05T02:01:11;6.50;94.60
24902;DHT22;31328;51.402;0.016;2023-03-05T02:03:38;6.50;94.60
24902;DHT22;31328;51.402;0.016;2023-03-05T02:06:05;6.50;94.60
24902;DHT22;31328;51.402;0.016;2023-03-05T02:08:31;6.50;94.50
24902;DHT22;31328;51.402;0.016;2023-03-05T02:10:58;6.50;94.60
24902;DHT22;31328;51.402;0.016;2023-03-05T02:13:28;6.50;94.50
24902;DHT22;31328;51.402;0.016;2023-03-05T02:15:58;6.50;94.40
24902;DHT22;31328;51.402;0.016;2023-03-05T02:18:26;6.50;94.40
24902;DHT22;31328;51.402;0.016;2023-03-05T02:23:26;6.40;94.30
24902;DHT22;31328;51.402;0.016;2023-03-05T02:25:53;6.40;94.40
24902;DHT22;31328;51.402;0.016;2023-03-05T02:30:58;6.40;94.30
24902;DHT22;31328;51.402;0.016;2023-03-05T02:33:25;6.40;94.40
24902;DHT22;31328;51.402;0.016;2023-03-05T02:35:52;6.40;94.20
24902;DHT22;31328;51.402;0.016;2023-03-05T02:38:19;6.40;94.30
24902;DHT22;31328;51.402;0.016;2023-03-05T02:40:46;6.40;94.20
24902;DHT22;31328;51.402;0.016;2023-03-05T02:43:14;6.40;94.10
24902;DHT22;31328;51.402;0.016;2023-03-05T02:45:40;6.40;94.20
24902;DHT22;31328;51.402;0.016;2023-03-05T02:48:06;6.40;94.10
24902;DHT22;31328;51.402;0.016;2023-03-05T02:50:33;6.30;94.00
24902;DHT22;31328;51.402;0.016;2023-03-05T02:53:00;6.30;94.10
24902;DHT22;31328;51.402;0.016;2023-03-05T02:55:26;6.30;94.10
24902;DHT22;31328;51.402;0.016;2023-03-05T02:57:53;6.30;94.10
24902;DHT22;31328;51.402;0.016;2023-03-05T03:00:19;6.30;94.20
24902;DHT22;31328;51.402;0.016;2023-03-05T03:02:45;6.30;94.20
24902;DHT22;31328;51.402;0.016;2023-03-05T03:05:12;6.20;94.10
24902;DHT22;31328;51.402;0.016;2023-03-05T03:07:38;6.30;94.20
24902;DHT22;31328;51.402;0.016;2023-03-05T03:10:05;6.30;94.30
24902;DHT22;31328;51.402;0.016;2023-03-05T03:12:37;6.30;94.20
24902;DHT22;31328;51.402;0.016;2023-03-05T03:15:03;6.30;94.30
24902;DHT22;31328;51.402;0.016;2023-03-05T03:17:30;6.30;94.40
24902;DHT22;31328;51.402;0.016;2023-03-05T03:19:56;6.30;94.30
24902;DHT22;31328;51.402;0.016;2023-03-05T03:22:22;6.30;94.30
24902;DHT22;31328;51.402;0.016;2023-03-05T03:24:49;6.20;94.30
24902;DHT22;31328;51.402;0.016;2023-03-05T03:27:15;6.20;94.30
24902;DHT22;31328;51.402;0.016;2023-03-05T03:29:41;6.20;94.30
24902;DHT22;31328;51.402;0.016;2023-03-05T03:32:07;6.20;94.30
24902;DHT22;31328;51.402;0.016;2023-03-05T03:34:34;6.20;94.30
24902;DHT22;31328;51.402;0.016;2023-03-05T03:37:00;6.20;94.40
24902;DHT22;31328;51.402;0.016;2023-03-05T03:39:27;6.20;94.40
24902;DHT22;31328;51.402;0.016;2023-03-05T03:41:54;6.20;94.30
24902;DHT22;31328;51.402;0.016;2023-03-05T03:44:21;6.20;94.40
24902;DHT22;31328;51.402;0.016;2023-03-05T03:46:49;6.20;94.40
24902;DHT22;31328;51.402;0.016;2023-03-05T03:49:21;6.20;94.50
24902;DHT22;31328;51.402;0.016;2023-03-05T03:51:49;6.20;94.40
24902;DHT22;31328;51.402;0.016;2023-03-05T03:54:17;6.20;94.40
24902;DHT22;31328;51.402;0.016;2023-03-05T03:56:44;6.20;94.50
24902;DHT22;31328;51.402;0.016;2023-03-05T03:59:11;6.20;94.50
24902;DHT22;31328;51.402;0.016;2023-03-05T04:01:37;6.10;94.70
24902;DHT22;31328;51.402;0.016;2023-03-05T04:04:04;6.20;94.80
24902;DHT22;31328;51.402;0.016;2023-03-05T04:06:32;6.10;94.80
24902;DHT22;31328;51.402;0.016;2023-03-05T04:08:58;6.10;94.80
24902;DHT22;31328;51.402;0.016;2023-03-05T04:11:24;6.20;94.80
24902;DHT22;31328;51.402;0.016;2023-03-05T04:13:51;6.10;94.80
24902;DHT22;31328;51.402;0.016;2023-03-05T04:16:17;6.10;94.80
24902;DHT22;31328;51.402;0.016;2023-03-05T04:18:44;6.10;94.70
24902;DHT22;31328;51.402;0.016;2023-03-05T04:21:11;6.10;94.70
24902;DHT22;31328;51.402;0.016;2023-03-05T04:23:37;6.10;94.70
24902;DHT22;31328;51.402;0.016;2023-03-05T04:26:04;6.10;94.80
24902;DHT22;31328;51.402;0.016;2023-03-05T04:28:31;6.20;94.80
24902;DHT22;31328;51.402;0.016;2023-03-05T04:30:57;6.10;94.80
24902;DHT22;31328;51.402;0.016;2023-03-05T04:33:24;6.10;94.70
24902;DHT22;31328;51.402;0.016;2023-03-05T04:35:50;6.10;94.60
24902;DHT22;31328;51.402;0.016;2023-03-05T04:38:17;6.10;94.70
24902;DHT22;31328;51.402;0.016;2023-03-05T04:40:44;6.10;94.70
24902;DHT22;31328;51.402;0.016;2023-03-05T04:43:11;6.10;94.80
24902;DHT22;31328;51.402;0.016;2023-03-05T04:45:42;6.10;94.60
24902;DHT22;31328;51.402;0.016;2023-03-05T04:48:10;6.10;94.60
24902;DHT22;31328;51.402;0.016;2023-03-05T04:50:37;6.10;94.60
24902;DHT22;31328;51.402;0.016;2023-03-05T04:53:03;6.00;94.50
24902;DHT22;31328;51.402;0.016;2023-03-05T04:55:30;6.00;94.50
24902;DHT22;31328;51.402;0.016;2023-03-05T04:57:56;6.00;94.70
24902;DHT22;31328;51.402;0.016;2023-03-05T05:00:23;6.00;94.60
24902;DHT22;31328;51.402;0.016;2023-03-05T05:02:50;6.00;94.60
24902;DHT22;31328;51.402;0.016;2023-03-05T05:05:19;6.00;94.60
24902;DHT22;31328;51.402;0.016;2023-03-05T05:07:46;6.00;94.70
24902;DHT22;31328;51.402;0.016;2023-03-05T05:10:14;5.90;94.70
24902;DHT22;31328;51.402;0.016;2023-03-05T05:12:40;5.90;94.80
24902;DHT22;31328;51.402;0.016;2023-03-05T05:15:08;5.90;94.70
24902;DHT22;31328;51.402;0.016;2023-03-05T05:17:35;5.90;94.80
24902;DHT22;31328;51.402;0.016;2023-03-05T05:20:02;5.90;94.70
24902;DHT22;31328;51.402;0.016;2023-03-05T05:22:31;5.90;94.80
24902;DHT22;31328;51.402;0.016;2023-03-05T05:24:58;5.90;94.80
24902;DHT22;31328;51.402;0.016;2023-03-05T05:27:24;5.90;94.80
24902;DHT22;31328;51.402;0.016;2023-03-05T05:29:51;5.90;94.80
24902;DHT22;31328;51.402;0.016;2023-03-05T05:32:22;5.90;94.80
24902;DHT22;31328;51.402;0.016;2023-03-05T05:34:56;5.90;94.90
24902;DHT22;31328;51.402;0.016;2023-03-05T05:37:24;5.80;94.90
24902;DHT22;31328;51.402;0.016;2023-03-05T05:39:50;5.80;94.90
24902;DHT22;31328;51.402;0.016;2023-03-05T05:42:17;5.80;95.00
24902;DHT22;31328;51.402;0.016;2023-03-05T05:44:44;5.90;95.10
24902;DHT22;31328;51.402;0.016;2023-03-05T05:47:13;5.90;95.00
24902;DHT22;31328;51.402;0.016;2023-03-05T05:49:39;5.80;95.10
24902;DHT22;31328;51.402;0.016;2023-03-05T05:52:06;5.80;95.00
24902;DHT22;31328;51.402;0.016;2023-03-05T05:54:32;5.90;95.00
24902;DHT22;31328;51.402;0.016;2023-03-05T05:56:59;5.80;95.00
24902;DHT22;31328;51.402;0.016;2023-03-05T05:59:25;5.80;95.00
24902;DHT22;31328;51.402;0.016;2023-03-05T06:01:51;5.80;95.10
24902;DHT22;31328;51.402;0.016;2023-03-05T06:04:17;5.80;95.00
24902;DHT22;31328;51.402;0.016;2023-03-05T06:06:44;5.80;95.30
24902;DHT22;31328;51.402;0.016;2023-03-05T06:09:10;5.80;95.00
24902;DHT22;31328;51.402;0.016;2023-03-05T06:11:37;5.80;95.00
24902;DHT22;31328;51.402;0.016;2023-03-05T06:14:03;5.80;95.10
24902;DHT22;31328;51.402;0.016;2023-03-05T06:16:30;5.70;95.10
24902;DHT22;31328;51.402;0.016;2023-03-05T06:18:56;5.70;95.10
24902;DHT22;31328;51.402;0.016;2023-03-05T06:21:22;5.80;95.10
24902;DHT22;31328;51.402;0.016;2023-03-05T06:23:49;5.70;95.10
24902;DHT22;31328;51.402;0.016;2023-03-05T06:26:19;5.70;95.10
24902;DHT22;31328;51.402;0.016;2023-03-05T06:28:45;5.70;95.10
24902;DHT22;31328;51.402;0.016;2023-03-05T06:31:14;5.70;95.10
24902;DHT22;31328;51.402;0.016;2023-03-05T06:33:41;5.70;95.10
24902;DHT22;31328;51.402;0.016;2023-03-05T06:36:10;5.70;95.00
24902;DHT22;31328;51.402;0.016;2023-03-05T06:38:38;5.70;95.00
24902;DHT22;31328;51.402;0.016;2023-03-05T06:41:13;5.70;94.90
24902;DHT22;31328;51.402;0.016;2023-03-05T06:43:42;5.70;95.10
24902;DHT22;31328;51.402;0.016;2023-03-05T06:46:12;5.60;95.10
24902;DHT22;31328;51.402;0.016;2023-03-05T06:48:38;5.60;95.10
24902;DHT22;31328;51.402;0.016;2023-03-05T06:51:30;5.60;95.40
24902;DHT22;31328;51.402;0.016;2023-03-05T06:54:05;5.60;95.10
24902;DHT22;31328;51.402;0.016;2023-03-05T06:56:34;5.60;95.10
24902;DHT22;31328;51.402;0.016;2023-03-05T06:59:01;5.60;95.00
24902;DHT22;31328;51.402;0.016;2023-03-05T07:01:27;5.60;95.10
24902;DHT22;31328;51.402;0.016;2023-03-05T07:03:54;5.60;95.10
24902;DHT22;31328;51.402;0.016;2023-03-05T07:06:23;5.60;95.20
24902;DHT22;31328;51.402;0.016;2023-03-05T07:08:50;5.60;95.00
24902;DHT22;31328;51.402;0.016;2023-03-05T07:11:19;5.60;95.00
24902;DHT22;31328;51.402;0.016;2023-03-05T07:13:46;5.60;94.90
24902;DHT22;31328;51.402;0.016;2023-03-05T07:16:18;5.60;94.90
24902;DHT22;31328;51.402;0.016;2023-03-05T07:18:45;5.60;95.00
24902;DHT22;31328;51.402;0.016;2023-03-05T07:21:15;5.60;95.00
24902;DHT22;31328;51.402;0.016;2023-03-05T07:23:42;5.60;94.90
24902;DHT22;31328;51.402;0.016;2023-03-05T07:26:09;5.60;95.00
24902;DHT22;31328;51.402;0.016;2023-03-05T07:28:36;5.60;94.90
24902;DHT22;31328;51.402;0.016;2023-03-05T07:31:10;5.60;94.90
24902;DHT22;31328;51.402;0.016;2023-03-05T07:33:37;5.60;94.80
24902;DHT22;31328;51.402;0.016;2023-03-05T07:36:06;5.60;94.80
24902;DHT22;31328;51.402;0.016;2023-03-05T07:38:32;5.60;94.80
24902;DHT22;31328;51.402;0.016;2023-03-05T07:41:07;5.60;94.80
24902;DHT22;31328;51.402;0.016;2023-03-05T07:43:34;5.60;94.70
24902;DHT22;31328;51.402;0.016;2023-03-05T07:46:04;5.60;94.80
24902;DHT22;31328;51.402;0.016;2023-03-05T07:48:30;5.70;94.70
24902;DHT22;31328;51.402;0.016;2023-03-05T07:51:06;5.70;94.70
24902;DHT22;31328;51.402;0.016;2023-03-05T07:53:32;5.70;94.60
24902;DHT22;31328;51.402;0.016;2023-03-05T07:55:59;5.70;94.70
24902;DHT22;31328;51.402;0.016;2023-03-05T07:58:25;5.70;94.80
24902;DHT22;31328;51.402;0.016;2023-03-05T08:00:52;5.70;94.70
24902;DHT22;31328;51.402;0.016;2023-03-05T08:03:18;5.70;94.70
24902;DHT22;31328;51.402;0.016;2023-03-05T08:05:45;5.80;94.60
24902;DHT22;31328;51.402;0.016;2023-03-05T08:08:11;5.80;94.60
24902;DHT22;31328;51.402;0.016;2023-03-05T08:10:38;5.80;94.50
24902;DHT22;31328;51.402;0.016;2023-03-05T08:13:04;5.80;94.60
24902;DHT22;31328;51.402;0.016;2023-03-05T08:15:31;5.80;94.50
24902;DHT22;31328;51.402;0.016;2023-03-05T08:17:57;5.90;94.50
24902;DHT22;31328;51.402;0.016;2023-03-05T08:20:24;5.80;94.40
24902;DHT22;31328;51.402;0.016;2023-03-05T08:22:50;5.90;94.40
24902;DHT22;31328;51.402;0.016;2023-03-05T08:25:17;5.90;94.30
24902;DHT22;31328;51.402;0.016;2023-03-05T08:27:44;5.90;94.30
24902;DHT22;31328;51.402;0.016;2023-03-05T08:30:14;6.00;94.30
24902;DHT22;31328;51.402;0.016;2023-03-05T08:32:41;5.90;94.20
24902;DHT22;31328;51.402;0.016;2023-03-05T08:35:08;6.00;94.30
24902;DHT22;31328;51.402;0.016;2023-03-05T08:37:35;6.00;94.30
24902;DHT22;31328;51.402;0.016;2023-03-05T08:40:02;6.00;94.10
24902;DHT22;31328;51.402;0.016;2023-03-05T08:42:29;6.00;94.00
24902;DHT22;31328;51.402;0.016;2023-03-05T08:44:56;6.00;94.00
24902;DHT22;31328;51.402;0.016;2023-03-05T08:47:22;6.00;93.70
24902;DHT22;31328;51.402;0.016;2023-03-05T08:49:50;6.00;93.80
24902;DHT22;31328;51.402;0.016;2023-03-05T08:52:21;6.00;93.70
24902;DHT22;31328;51.402;0.016;2023-03-05T08:54:47;6.10;93.60
24902;DHT22;31328;51.402;0.016;2023-03-05T08:57:14;6.10;93.50
24902;DHT22;31328;51.402;0.016;2023-03-05T08:59:40;6.10;93.30
24902;DHT22;31328;51.402;0.016;2023-03-05T09:02:11;6.10;93.40
24902;DHT22;31328;51.402;0.016;2023-03-05T09:04:37;6.10;93.20
24902;DHT22;31328;51.402;0.016;2023-03-05T09:07:04;6.10;93.40
24902;DHT22;31328;51.402;0.016;2023-03-05T09:09:30;6.10;93.30
24902;DHT22;31328;51.402;0.016;2023-03-05T09:11:58;6.20;93.20
24902;DHT22;31328;51.402;0.016;2023-03-05T09:14:25;6.20;93.00
24902;DHT22;31328;51.402;0.016;2023-03-05T09:16:54;6.20;92.90
24902;DHT22;31328;51.402;0.016;2023-03-05T09:19:20;6.20;92.90
24902;DHT22;31328;51.402;0.016;2023-03-05T09:21:47;6.30;92.90
24902;DHT22;31328;51.402;0.016;2023-03-05T09:24:13;6.30;92.80
24902;DHT22;31328;51.402;0.016;2023-03-05T09:26:40;6.30;92.70
24902;DHT22;31328;51.402;0.016;2023-03-05T09:29:07;6.30;92.70
24902;DHT22;31328;51.402;0.016;2023-03-05T09:31:35;6.40;92.70
24902;DHT22;31328;51.402;0.016;2023-03-05T09:34:03;6.50;92.70
24902;DHT22;31328;51.402;0.016;2023-03-05T09:36:30;6.50;92.50
24902;DHT22;31328;51.402;0.016;2023-03-05T09:38:57;6.50;92.30
24902;DHT22;31328;51.402;0.016;2023-03-05T09:41:47;6.50;92.30
24902;DHT22;31328;51.402;0.016;2023-03-05T09:44:28;6.60;92.30
24902;DHT22;31328;51.402;0.016;2023-03-05T09:55:54;6.50;92.10
24902;DHT22;31328;51.402;0.016;2023-03-05T09:58:24;6.70;92.20
24902;DHT22;31328;51.402;0.016;2023-03-05T10:01:10;6.70;92.20
24902;DHT22;31328;51.402;0.016;2023-03-05T10:03:53;6.80;92.10
24902;DHT22;31328;51.402;0.016;2023-03-05T10:06:33;6.80;91.90
24902;DHT22;31328;51.402;0.016;2023-03-05T10:11:56;6.90;91.80
24902;DHT22;31328;51.402;0.016;2023-03-05T10:14:28;6.90;91.70
24902;DHT22;31328;51.402;0.016;2023-03-05T10:28:37;7.10;91.60
24902;DHT22;31328;51.402;0.016;2023-03-05T10:31:29;7.10;91.40
24902;DHT22;31328;51.402;0.016;2023-03-05T10:34:07;7.20;91.50
24902;DHT22;31328;51.402;0.016;2023-03-05T10:42:41;7.30;91.30
24902;DHT22;31328;51.402;0.016;2023-03-05T10:45:16;7.30;91.10
24902;DHT22;31328;51.402;0.016;2023-03-05T10:47:57;7.30;91.00
24902;DHT22;31328;51.402;0.016;2023-03-05T10:50:27;7.30;91.00
24902;DHT22;31328;51.402;0.016;2023-03-05T10:53:28;7.30;90.90
24902;DHT22;31328;51.402;0.016;2023-03-05T10:56:00;7.30;90.70
24902;DHT22;31328;51.402;0.016;2023-03-05T10:58:27;7.30;90.80
24902;DHT22;31328;51.402;0.016;2023-03-05T11:06:12;7.30;90.50
24902;DHT22;31328;51.402;0.016;2023-03-05T11:08:39;7.30;90.60
24902;DHT22;31328;51.402;0.016;2023-03-05T11:11:14;7.40;90.70
24902;DHT22;31328;51.402;0.016;2023-03-05T11:16:22;7.40;90.50
24902;DHT22;31328;51.402;0.016;2023-03-05T11:18:49;7.50;90.30
24902;DHT22;31328;51.402;0.016;2023-03-05T11:21:21;7.50;90.20
24902;DHT22;31328;51.402;0.016;2023-03-05T11:24:09;7.60;90.40
24902;DHT22;31328;51.402;0.016;2023-03-05T11:29:24;7.70;90.40
24902;DHT22;31328;51.402;0.016;2023-03-05T11:31:51;7.80;90.30
24902;DHT22;31328;51.402;0.016;2023-03-05T11:39:18;7.80;90.00
24902;DHT22;31328;51.402;0.016;2023-03-05T11:42:10;7.80;89.70
24902;DHT22;31328;51.402;0.016;2023-03-05T11:44:51;7.80;89.30
24902;DHT22;31328;51.402;0.016;2023-03-05T11:50:32;7.80;89.00
24902;DHT22;31328;51.402;0.016;2023-03-05T11:53:14;7.80;89.30
24902;DHT22;31328;51.402;0.016;2023-03-05T11:56:19;7.80;89.20
24902;DHT22;31328;51.402;0.016;2023-03-05T11:59:03;7.90;88.80
24902;DHT22;31328;51.402;0.016;2023-03-05T12:01:33;7.90;88.40
24902;DHT22;31328;51.402;0.016;2023-03-05T12:04:01;7.90;88.40
24902;DHT22;31328;51.402;0.016;2023-03-05T12:06:38;7.90;87.70
24902;DHT22;31328;51.402;0.016;2023-03-05T12:09:23;7.90;87.40
24902;DHT22;31328;51.402;0.016;2023-03-05T12:11:55;7.90;87.80
24902;DHT22;31328;51.402;0.016;2023-03-05T12:14:29;7.90;87.30
24902;DHT22;31328;51.402;0.016;2023-03-05T12:17:18;7.90;87.10
24902;DHT22;31328;51.402;0.016;2023-03-05T12:19:50;7.90;87.30
24902;DHT22;31328;51.402;0.016;2023-03-05T12:22:30;7.90;87.80
24902;DHT22;31328;51.402;0.016;2023-03-05T12:27:42;7.90;88.10
24902;DHT22;31328;51.402;0.016;2023-03-05T12:33:02;7.90;87.60
24902;DHT22;31328;51.402;0.016;2023-03-05T12:35:32;7.90;87.80
24902;DHT22;31328;51.402;0.016;2023-03-05T12:38:48;7.90;87.70
24902;DHT22;31328;51.402;0.016;2023-03-05T12:40:49;7.90;87.90
24902;DHT22;31328;51.402;0.016;2023-03-05T12:43:32;7.90;88.00
24902;DHT22;31328;51.402;0.016;2023-03-05T12:46:25;7.90;88.10
24902;DHT22;31328;51.402;0.016;2023-03-05T12:48:53;7.90;88.20
24902;DHT22;31328;51.402;0.016;2023-03-05T12:51:47;7.90;88.30
24902;DHT22;31328;51.402;0.016;2023-03-05T12:54:26;7.90;87.90
24902;DHT22;31328;51.402;0.016;2023-03-05T12:56:54;7.90;88.20
24902;DHT22;31328;51.402;0.016;2023-03-05T12:59:23;7.90;88.20
24902;DHT22;31328;51.402;0.016;2023-03-05T13:01:54;7.90;88.10
24902;DHT22;31328;51.402;0.016;2023-03-05T13:04:31;7.90;87.90
24902;DHT22;31328;51.402;0.016;2023-03-05T13:07:05;7.80;87.80
24902;DHT22;31328;51.402;0.016;2023-03-05T13:09:33;7.80;88.20
24902;DHT22;31328;51.402;0.016;2023-03-05T13:12:03;7.70;88.10
24902;DHT22;31328;51.402;0.016;2023-03-05T13:19:59;7.60;88.50
24902;DHT22;31328;51.402;0.016;2023-03-05T13:22:25;7.60;88.40
24902;DHT22;31328;51.402;0.016;2023-03-05T13:25:12;7.60;88.30
24902;DHT22;31328;51.402;0.016;2023-03-05T13:27:39;7.50;88.30
24902;DHT22;31328;51.402;0.016;2023-03-05T13:30:27;7.50;88.50
24902;DHT22;31328;51.402;0.016;2023-03-05T13:32:58;7.50;88.30
24902;DHT22;31328;51.402;0.016;2023-03-05T13:35:25;7.60;88.30
24902;DHT22;31328;51.402;0.016;2023-03-05T13:37:52;7.60;87.80
24902;DHT22;31328;51.402;0.016;2023-03-05T13:40:24;7.60;87.50
24902;DHT22;31328;51.402;0.016;2023-03-05T13:42:51;7.60;87.10
24902;DHT22;31328;51.402;0.016;2023-03-05T13:45:27;7.60;86.60
24902;DHT22;31328;51.402;0.016;2023-03-05T13:47:59;7.60;85.90
24902;DHT22;31328;51.402;0.016;2023-03-05T13:50:31;7.50;85.90
24902;DHT22;31328;51.402;0.016;2023-03-05T13:55:47;7.50;86.30
24902;DHT22;31328;51.402;0.016;2023-03-05T13:58:46;7.40;86.50
24902;DHT22;31328;51.402;0.016;2023-03-05T14:03:39;7.30;86.80
24902;DHT22;31328;51.402;0.016;2023-03-05T14:06:11;7.30;87.00
24902;DHT22;31328;51.402;0.016;2023-03-05T14:08:38;7.30;87.00
24902;DHT22;31328;51.402;0.016;2023-03-05T14:11:13;7.20;87.30
24902;DHT22;31328;51.402;0.016;2023-03-05T14:13:39;7.20;87.30
24902;DHT22;31328;51.402;0.016;2023-03-05T14:16:24;7.20;87.20
24902;DHT22;31328;51.402;0.016;2023-03-05T14:18:55;7.20;87.60
24902;DHT22;31328;51.402;0.016;2023-03-05T14:21:22;7.20;88.10
24902;DHT22;31328;51.402;0.016;2023-03-05T14:23:52;7.20;87.30
24902;DHT22;31328;51.402;0.016;2023-03-05T14:26:31;7.10;86.90
24902;DHT22;31328;51.402;0.016;2023-03-05T14:29:20;7.10;87.40
24902;DHT22;31328;51.402;0.016;2023-03-05T14:36:51;6.90;87.60
24902;DHT22;31328;51.402;0.016;2023-03-05T14:41:52;6.90;87.80
24902;DHT22;31328;51.402;0.016;2023-03-05T14:44:18;6.80;88.10
24902;DHT22;31328;51.402;0.016;2023-03-05T14:46:48;6.90;88.40
24902;DHT22;31328;51.402;0.016;2023-03-05T14:49:16;6.80;88.00
24902;DHT22;31328;51.402;0.016;2023-03-05T14:51:44;6.80;87.90
24902;DHT22;31328;51.402;0.016;2023-03-05T14:54:19;6.80;87.80
24902;DHT22;31328;51.402;0.016;2023-03-05T14:56:46;6.80;88.20
24902;DHT22;31328;51.402;0.016;2023-03-05T14:59:16;6.70;88.10
24902;DHT22;31328;51.402;0.016;2023-03-05T15:01:43;6.70;88.20
24902;DHT22;31328;51.402;0.016;2023-03-05T15:04:09;6.70;88.30
24902;DHT22;31328;51.402;0.016;2023-03-05T15:06:38;6.70;88.40
24902;DHT22;31328;51.402;0.016;2023-03-05T15:09:06;6.70;88.40
24902;DHT22;31328;51.402;0.016;2023-03-05T15:11:33;6.70;88.50
24902;DHT22;31328;51.402;0.016;2023-03-05T15:13:59;6.70;88.50
24902;DHT22;31328;51.402;0.016;2023-03-05T15:16:25;6.60;88.60
24902;DHT22;31328;51.402;0.016;2023-03-05T15:18:52;6.70;88.60
24902;DHT22;31328;51.402;0.016;2023-03-05T15:21:18;6.70;88.90
24902;DHT22;31328;51.402;0.016;2023-03-05T15:23:44;6.70;89.10
24902;DHT22;31328;51.402;0.016;2023-03-05T15:26:13;6.70;89.30
24902;DHT22;31328;51.402;0.016;2023-03-05T15:28:40;6.70;90.00
24902;DHT22;31328;51.402;0.016;2023-03-05T15:31:07;6.70;89.30
24902;DHT22;31328;51.402;0.016;2023-03-05T15:33:34;6.70;89.10
24902;DHT22;31328;51.402;0.016;2023-03-05T15:36:00;6.70;89.20
24902;DHT22;31328;51.402;0.016;2023-03-05T15:38:27;6.60;89.00
24902;DHT22;31328;51.402;0.016;2023-03-05T15:40:53;6.60;89.30
24902;DHT22;31328;51.402;0.016;2023-03-05T15:43:19;6.60;89.30
24902;DHT22;31328;51.402;0.016;2023-03-05T15:45:46;6.60;89.30
24902;DHT22;31328;51.402;0.016;2023-03-05T15:48:13;6.60;89.40
24902;DHT22;31328;51.402;0.016;2023-03-05T15:50:40;6.60;89.30
24902;DHT22;31328;51.402;0.016;2023-03-05T15:53:07;6.60;89.70
24902;DHT22;31328;51.402;0.016;2023-03-05T15:55:40;6.60;89.80
24902;DHT22;31328;51.402;0.016;2023-03-05T15:58:08;6.60;89.70
24902;DHT22;31328;51.402;0.016;2023-03-05T16:00:38;6.60;89.60
24902;DHT22;31328;51.402;0.016;2023-03-05T16:03:05;6.60;89.80
24902;DHT22;31328;51.402;0.016;2023-03-05T16:05:34;6.60;89.80
24902;DHT22;31328;51.402;0.016;2023-03-05T16:08:00;6.60;89.90
24902;DHT22;31328;51.402;0.016;2023-03-05T16:10:28;6.60;89.80
24902;DHT22;31328;51.402;0.016;2023-03-05T16:13:02;6.60;90.00
24902;DHT22;31328;51.402;0.016;2023-03-05T16:15:31;6.60;90.10
24902;DHT22;31328;51.402;0.016;2023-03-05T16:17:59;6.70;90.10
24902;DHT22;31328;51.402;0.016;2023-03-05T16:20:27;6.70;90.10
24902;DHT22;31328;51.402;0.016;2023-03-05T16:22:53;6.70;90.10
24902;DHT22;31328;51.402;0.016;2023-03-05T16:25:20;6.80;90.10
24902;DHT22;31328;51.402;0.016;2023-03-05T16:27:47;6.80;89.90
24902;DHT22;31328;51.402;0.016;2023-03-05T16:30:14;6.80;89.40
24902;DHT22;31328;51.402;0.016;2023-03-05T16:32:41;6.80;89.20
24902;DHT22;31328;51.402;0.016;2023-03-05T16:35:07;6.80;89.20
24902;DHT22;31328;51.402;0.016;2023-03-05T16:37:37;6.80;89.00
24902;DHT22;31328;51.402;0.016;2023-03-05T16:40:03;6.80;89.00
24902;DHT22;31328;51.402;0.016;2023-03-05T16:42:30;6.80;88.10
24902;DHT22;31328;51.402;0.016;2023-03-05T16:44:56;6.70;88.60
24902;DHT22;31328;51.402;0.016;2023-03-05T16:47:24;6.70;88.40
24902;DHT22;31328;51.402;0.016;2023-03-05T16:49:50;6.70;88.70
24902;DHT22;31328;51.402;0.016;2023-03-05T16:52:16;6.70;88.70
24902;DHT22;31328;51.402;0.016;2023-03-05T16:54:43;6.70;88.90
24902;DHT22;31328;51.402;0.016;2023-03-05T16:57:10;6.70;89.10
24902;DHT22;31328;51.402;0.016;2023-03-05T16:59:36;6.70;89.30
24902;DHT22;31328;51.402;0.016;2023-03-05T17:02:04;6.70;89.10
24902;DHT22;31328;51.402;0.016;2023-03-05T17:04:30;6.70;89.10
24902;DHT22;31328;51.402;0.016;2023-03-05T17:06:57;6.60;88.60
24902;DHT22;31328;51.402;0.016;2023-03-05T17:09:23;6.60;88.60
24902;DHT22;31328;51.402;0.016;2023-03-05T17:11:50;6.60;88.50
24902;DHT22;31328;51.402;0.016;2023-03-05T17:14:17;6.60;88.50
24902;DHT22;31328;51.402;0.016;2023-03-05T17:16:44;6.60;89.10